Tiempo atmosférico en la estación meteorológica de Machichaco, Bizkaia (93 m.)



Fecha
DESCASC
Temp. máxima en grados centígrados (hora)
DESCASC
Temp. mínima en grados centígrados (hora)
DESCASC
Temp. media en grados centígrados
DESCASC
Racha de viento máxima en m/sg (hora)
DESCASC
Velocidad máxima media en intervalos de 10 minutos(hora)
DESCASC
Precipitaciones diarias en mm
DESCASC
Precipitaciones de 00:00 a 06:00 en mm
DESCASC
Precipitaciones de 06:00 a 12:00 en mm
DESCASC
Precipitaciones de 12:00 a 18:00 en mm
DESCASC
Precipitaciones de 18:00 a 24:00 en mm
DESCASC
17-09-2020 26.2 (18:10) 19.9 (02:50) 23.1 7.5 (17:40) 5 (16:00) 0 0 0 0 0
16-09-2020 24 (15:40) 19.7 (00:40) 21.9 7.22 (17:30) 5.28 (17:10) 0 0 0 0 0
15-09-2020 25.9 (11:50) 20.3 (00:30) 23.1 18.33 (00:10) 13.89 (00:10) 0 0 0 0 0
14-09-2020 33.4 (14:10) 20.9 (00:00) 27.2 17.5 (23:59) 12.78 (23:59) 0 0 0 0 0
13-09-2020 26.9 (17:40) 18.9 (00:00) 22.9 9.44 (16:30) 6.39 (16:20) 0 0 0 0 0
12-09-2020 22.7 (13:10) 18.1 (00:00) 20.4 7.22 (19:40) 5.28 (19:40) 0 0 0 0 0
11-09-2020 22.6 (13:30) 18 (00:00) 20.3 8.33 (21:40) 6.11 (21:50) 0 0 0 0 0
10-09-2020 21.9 (16:40) 18.4 (00:00) 20.1 10 (11:20) 7.78 (11:20) 0 0 0 0 0
09-09-2020 23 (17:10) 16.9 (00:00) 19.9 7.5 (23:59) 5.83 (19:40) 0 0 0 0 0
08-09-2020 21.1 (13:00) 16.8 (00:00) 18.9 10.28 (21:00) 8.33 (21:00) 0 0 0 0 0
07-09-2020 20.2 (12:50) 16.5 (05:30) 18.4 11.11 (08:30) 8.33 (08:30) 0.4 0.4 0 0 0
06-09-2020 20 (13:00) 17.7 (00:00) 18.9 10 (14:40) 7.78 (14:30) 0 0 0 0 0
05-09-2020 23 (15:00) 18.8 (00:00) 20.9 18.89 (03:10) 14.72 (03:30) 0 0 0 0 0
04-09-2020 26.2 (17:10) 17.9 (00:00) 22.1 10.83 (23:59) 7.5 (23:59) 0 0 0 0 0
03-09-2020 22.1 (17:50) 17.1 (00:00) 19.6 9.17 (14:50) 7.22 (12:00) 0 0 0 0 0
02-09-2020 22.3 (14:50) 16.6 (00:00) 19.4 6.67 (21:30) 5.28 (21:30) 0 0 0 0 0
01-09-2020 23.1 (17:50) 16 (00:00) 19.6 7.22 (16:20) 5.83 (16:40) 0 0 0 0 0
31-08-2020 20.4 (15:10) 13.6 (00:00) 17 10 (16:30) 7.5 (17:00) 0 0 0 0 0
30-08-2020 19 (18:20) 14.2 (00:00) 16.6 17.5 (07:20) 13.61 (00:10) 0.2 0 0.2 0 0
29-08-2020 19 (00:00) 14 (00:00) 16.5 20.83 (21:10) 15.83 (21:10) 28.4 2.2 13.8 6.8 5.6
28-08-2020 21.4 (00:00) 16 (00:00) 18.7 22.22 (15:50) 16.11 (16:00) 7.6 4.6 0.6 2 0.4
27-08-2020 24.8 (11:50) 20.3 (00:00) 22.5 12.22 (16:10) 10.28 (16:10) 0 0 0 0 0
26-08-2020 23.8 (12:40) 19.7 (00:00) 21.8 7.78 (19:20) 6.39 (17:10) 0 0 0 0 0
25-08-2020 24.4 (09:30) 18.9 (00:00) 21.6 14.44 (11:30) 11.39 (13:30) 0 0 0 0 0
24-08-2020 22.7 (12:10) 17.4 (00:00) 20.1 11.11 (21:00) 7.78 (21:00) 0 0 0 0 0
23-08-2020 23.2 (15:20) 18 (00:00) 20.6 7.22 (12:20) 6.11 (12:20) 0 0 0 0 0
22-08-2020 21.9 (17:20) 18.1 (00:00) 20 8.61 (13:50) 6.11 (13:50) 0.8 0 0.8 0 0
21-08-2020 25.1 (03:30) 20.4 (00:00) 22.8 12.22 (03:50) 9.17 (04:00) 0.4 0.4 0 0 0

Gráficas

Temp. máximas Temp. mínimas Temp. medias Precipitaciones Rachas de viento máximas Velocidades máximas media en intervalos de 10 minutos

Datos horarios

Fecha y hora oficial Temperatura (ºC) Velocidad del viento (km/h) Dirección del viento Racha (km/h) Dirección de racha Precipitación (mm) Presión (hPa) Tendencia (hPa) Humedad (%)
2020-09-19 23:00:00 18.7 18 Oeste 42 Oeste 0 -- -- 78
2020-09-19 22:00:00 18.8 23 Oeste 40 Oeste 0 -- -- 84
2020-09-19 21:00:00 18.6 22 Oeste 42 Sudoeste 0 -- -- 87
2020-09-19 20:00:00 17.2 17 Sudoeste 45 Oeste 4.6 -- -- 94
2020-09-19 19:00:00 17.9 25 Oeste 45 Oeste 0.4 -- -- 88
2020-09-19 18:00:00 18.7 19 Oeste 50 Oeste 0 -- -- 83
2020-09-19 17:00:00 19.7 26 Oeste 41 Oeste 0 -- -- 75
2020-09-19 16:00:00 19.6 21 Oeste 50 Oeste 0 -- -- 80
2020-09-19 15:00:00 21.5 19 Sudoeste 42 Sur 0 -- -- 63
2020-09-19 14:00:00 20.2 19 Sur 33 Sudoeste 0 -- -- 70
2020-09-19 13:00:00 21.5 13 Sur 25 Sur 0 -- -- 64
2020-09-19 12:00:00 22.3 6 Sudoeste 22 Sur 0 -- -- 61
2020-09-19 11:00:00 21.6 8 Sur 28 Sur 0 -- -- 60
2020-09-19 10:00:00 20.7 15 Sur 40 Sur 0 -- -- 62
2020-09-19 09:00:00 20.5 27 Sudoeste 44 Sudoeste 0 -- -- 61
2020-09-19 08:00:00 19.7 11 Sur 20 Sur 0 -- -- 64
2020-09-19 07:00:00 20 8 Sur 17 Sudeste 0 -- -- 64
2020-09-19 06:00:00 19.5 6 Sudeste 12 Sudeste 0 -- -- 67
2020-09-19 05:00:00 19.9 5 Sudeste 14 Sur 0 -- -- 66
2020-09-19 04:00:00 19.3 6 Sudeste 21 Sudeste 0 -- -- 69
2020-09-19 03:00:00 19.5 4 Sudeste 19 Sudoeste 0 -- -- 66
2020-09-19 02:00:00 19.6 5 Sudoeste 35 Sudoeste 0 -- -- 68
2020-09-19 01:00:00 20.5 9 Sudoeste 25 Oeste 0 -- -- 68
2020-09-19 00:00:00 22.7 10 Sudoeste 27 Sudeste 0 -- -- 63
2020-09-18 23:00:00 22.2 17 Este 33 Sudeste 0 -- -- 68
2020-09-18 22:00:00 22.7 19 Este 31 Este 0 -- -- 64
2020-09-18 21:00:00 22.2 15 Este 32 Sudeste 0 -- -- 64
2020-09-18 20:00:00 21.3 17 Este 31 Este 0 -- -- 65
2020-09-18 19:00:00 23.3 10 Sudeste 32 Este 0 -- -- 58
2020-09-18 18:00:00 25.9 11 Sudeste 23 Sudeste 0 -- -- 52
2020-09-18 17:00:00 24.9 7 Norte 18 Sur 0 -- -- 65
2020-09-18 16:00:00 25.5 12 Sudeste 29 Este 0 -- -- 52
2020-09-18 15:00:00 27.6 13 Este 28 Sudeste 0 -- -- 48
2020-09-18 14:00:00 26.4 13 Sudoeste 36 Sudoeste 0 -- -- 41
2020-09-18 13:00:00 25 17 Sur 37 Sur 0 -- -- 49
2020-09-18 12:00:00 24.8 6 Sur 15 Sur 0 -- -- 58
2020-09-18 11:00:00 23 6 Sudeste 19 Sur 0 -- -- 66
2020-09-18 10:00:00 22.6 6 Sur 23 Este 0 -- -- 69
2020-09-18 09:00:00 22.9 10 Sudeste 28 Sudeste 0 -- -- 66
2020-09-18 08:00:00 23.1 13 Sur 32 Sudeste 0 -- -- 58
2020-09-18 07:00:00 23.8 15 Sur 36 Sudeste 0 -- -- 54
2020-09-18 06:00:00 23.5 12 Sudeste 28 Este 0 -- -- 60
2020-09-18 05:00:00 23.2 8 Este 28 Este 0 -- -- 64
2020-09-18 04:00:00 24.5 5 Este 42 Sur 0 -- -- 58
2020-09-18 03:00:00 26.5 7 Sur 18 Sudeste 0 -- -- 47
2020-09-18 02:00:00 24.7 6 Sudeste 14 Este 0 -- -- 53
2020-09-18 01:00:00 26.1 7 Este 23 Este 0 -- -- 46
2020-09-18 00:00:00 23.2 12 Este 22 Este 0 -- -- 73
2020-09-17 23:00:00 24.2 15 Este 21 Sudeste 0 -- -- 61
2020-09-17 22:00:00 23.7 9 Este 17 Este 0 -- -- 73
2020-09-17 21:00:00 23.3 13 Este 22 Sudeste 0 -- -- 75
2020-09-17 20:00:00 23.6 13 Sudeste 23 Este 0 -- -- 78
2020-09-17 19:00:00 24.2 14 Este 25 Este 0 -- -- 73
2020-09-17 18:00:00 26 14 Este 27 Sudeste 0 -- -- 57
2020-09-17 17:00:00 24.6 14 Sudeste 25 Sudeste 0 -- -- 66
2020-09-17 16:00:00 24.4 18 Este 27 Este 0 -- -- 81
2020-09-17 15:00:00 24.7 12 Sudeste 24 Este 0 -- -- 82
2020-09-17 14:00:00 22.6 17 Este 27 Este 0 -- -- 89
2020-09-17 13:00:00 22.5 10 Este 23 Sudeste 0 -- -- 86
2020-09-17 12:00:00 22.4 16 Este 25 Este 0 -- -- 84
2020-09-17 11:00:00 23.9 14 Este 20 Este 0 -- -- 77
2020-09-17 10:00:00 23.3 8 Sudeste 20 Este 0 -- -- 77
2020-09-17 09:00:00 21.6 12 Sudeste 20 Sudeste 0 -- -- 83
2020-09-17 08:00:00 21.4 15 Sudeste 24 Sudeste 0 -- -- 83
2020-09-17 07:00:00 20.5 13 Sudeste 18 Sudeste 0 -- -- 91
2020-09-17 06:00:00 20 2 Nordeste 9 Sudoeste 0 -- -- 91
2020-09-17 05:00:00 20.1 0 Calma 8 Sudoeste 0 -- -- 92
2020-09-17 04:00:00 20.2 3 Sur 8 Sudoeste 0 -- -- 92
2020-09-17 03:00:00 20 3 Sur 12 Sudoeste 0 -- -- 91
2020-09-17 02:00:00 20.5 8 Sudoeste 13 Sudoeste 0 -- -- 92
2020-09-17 01:00:00 20.8 9 Sudoeste 10 Sudoeste 0 -- -- 92
2020-09-17 00:00:00 21 9 Sudoeste 12 Sudoeste 0 -- -- 89
2020-09-16 23:00:00 22.8 2 Oeste 21 Sudeste 0 -- -- 74
2020-09-16 22:00:00 23.4 13 Sudeste 25 Sudeste 0 -- -- 70
2020-09-16 21:00:00 21.7 14 Sudeste 23 Sudeste 0 -- -- 86
2020-09-16 20:00:00 21.8 15 Sudeste 25 Este 0 -- -- 91
2020-09-16 19:00:00 22.3 17 Este 25 Este 0 -- -- 88
2020-09-16 18:00:00 22.7 17 Este 26 Este 0 -- -- 87
2020-09-16 17:00:00 23.1 16 Este 25 Este 0 -- -- 86
2020-09-16 16:00:00 23.9 15 Este 22 Este 0 -- -- 84
2020-09-16 15:00:00 23.4 17 Este 24 Este 0 -- -- 85
2020-09-16 14:00:00 23.6 14 Este 21 Este 0 -- -- 84
2020-09-16 13:00:00 23.1 12 Este 16 Este 0 -- -- 85
2020-09-16 12:00:00 23 6 Nordeste 9 Nordeste 0 -- -- 84
2020-09-16 11:00:00 22.6 4 Norte 14 Este 0 -- -- 81
2020-09-16 10:00:00 22 12 Este 18 Este 0 -- -- 90
2020-09-16 09:00:00 20.6 7 Sudeste 15 Este 0 -- -- 95
2020-09-16 08:00:00 20 8 Este 13 Este 0 -- -- 96
2020-09-16 07:00:00 20 6 Sudeste 10 Este 0 -- -- 96
2020-09-16 06:00:00 20.2 6 Este 12 Sudeste 0 -- -- 96
2020-09-16 05:00:00 20.2 7 Sudeste 13 Sudeste 0 -- -- 96
2020-09-16 04:00:00 20.3 5 Sudeste 12 Este 0 -- -- 97
2020-09-16 03:00:00 20.3 7 Sudeste 10 Sudeste 0 -- -- 97
2020-09-16 02:00:00 20.1 5 Este 10 Este 0 -- -- 97
2020-09-16 01:00:00 20.1 3 Este 5 Este 0 -- -- 97
2020-09-16 00:00:00 20.3 0 Calma 9 Sudoeste 0 -- -- 96
2020-09-15 23:00:00 20.5 8 Sudoeste 13 Sudoeste 0 -- -- 95
2020-09-15 22:00:00 21 13 Sudoeste 16 Sudoeste 0 -- -- 95
2020-09-15 21:00:00 21 12 Sudoeste 16 Sudoeste 0 -- -- 92
2020-09-15 20:00:00 21.6 5 Sudeste 14 Este 0 -- -- 79
2020-09-15 19:00:00 23.5 9 Sudeste 20 Sudeste 0 -- -- 65
2020-09-15 18:00:00 23.3 12 Sudeste 21 Este 0 -- -- 84
2020-09-15 17:00:00 22.8 15 Este 27 Este 0 -- -- 86
2020-09-15 16:00:00 24.5 17 Este 26 Sudeste 0 -- -- 75
2020-09-15 15:00:00 24.4 18 Este 24 Este 0 -- -- 75
2020-09-15 14:00:00 24.1 18 Este 22 Este 0 -- -- 82
2020-09-15 13:00:00 24.1 17 Este 22 Este 0 -- -- 79
2020-09-15 12:00:00 25.3 12 Este 18 Este 0 -- -- 68
2020-09-15 11:00:00 25.2 3 Norte 8 Nordeste 0 -- -- 58
2020-09-15 10:00:00 24.7 3 Este 10 Sudoeste 0 -- -- 59
2020-09-15 09:00:00 23 4 Sudeste 12 Sudeste 0 -- -- 62
2020-09-15 08:00:00 21.6 8 Sudoeste 13 Sur 0 -- -- 65
2020-09-15 07:00:00 22.6 9 Sudeste 21 Sudeste 0 -- -- 60
2020-09-15 06:00:00 21.5 8 Sudeste 20 Sudeste 0 -- -- 74
2020-09-15 05:00:00 21.2 8 Sur 15 Sudeste 0 -- -- 75
2020-09-15 04:00:00 22.2 11 Oeste 29 Sudoeste 0 -- -- 70
2020-09-15 03:00:00 20.5 8 Sudoeste 22 Oeste 0 -- -- 90
2020-09-15 02:00:00 20.6 13 Sudoeste 40 Oeste 0 -- -- 91
2020-09-15 01:00:00 20.4 28 Oeste 66 Oeste 0 -- -- 89
2020-09-15 00:00:00 20.9 46 Oeste 63 Oeste 0 -- -- 89
2020-09-14 23:00:00 21.2 16 Oeste 22 Oeste 0 -- -- 71
2020-09-14 22:00:00 22.5 15 Oeste 24 Oeste 0 -- -- 57
2020-09-14 21:00:00 22.4 12 Sudoeste 24 Oeste 0 -- -- 61
2020-09-14 20:00:00 21.9 23 Oeste 42 Oeste 0 -- -- 73
2020-09-14 19:00:00 22.6 13 Sudoeste 42 Sudoeste 0 -- -- 66
2020-09-14 18:00:00 22.8 29 Oeste 44 Oeste 0 -- -- 66
2020-09-14 17:00:00 22.9 32 Oeste 48 Oeste 0 -- -- 69
2020-09-14 16:00:00 23.2 33 Oeste 50 Oeste 0 -- -- 74
2020-09-14 15:00:00 25.9 27 Oeste 38 Oeste 0 -- -- 70
2020-09-14 14:00:00 32.4 7 Sur 22 Sur 0 -- -- 31
2020-09-14 13:00:00 31.9 8 Oeste 15 Nordeste 0 -- -- 34
2020-09-14 12:00:00 30.6 8 Norte 19 Nordeste 0 -- -- 36
2020-09-14 11:00:00 30.9 6 Noroeste 23 Sudeste 0 -- -- 37
2020-09-14 10:00:00 29.7 5 Norte 41 Sudoeste 0 -- -- 34
2020-09-14 09:00:00 29.2 25 Sur 55 Sur 0 -- -- 33
2020-09-14 08:00:00 29.1 32 Sur 53 Sudoeste 0 -- -- 32
2020-09-14 07:00:00 29.1 28 Sur 49 Sur 0 -- -- 32
2020-09-14 06:00:00 29.7 19 Sur 46 Sudeste 0 -- -- 32
2020-09-14 05:00:00 30.2 22 Sur 39 Sur 0 -- -- 32
2020-09-14 04:00:00 30.5 20 Sur 38 Sur 0 -- -- 29
2020-09-14 03:00:00 30.3 21 Sur 38 Sudeste 0 -- -- 28
2020-09-14 02:00:00 29.8 20 Sur 34 Sudeste 0 -- -- 28
2020-09-14 01:00:00 25.5 7 Sudeste 14 Sudeste 0 -- -- 45
2020-09-14 00:00:00 24.4 3 Este 12 Oeste 0 -- -- 56
2020-09-13 23:00:00 24.8 8 Sudeste 17 Sudeste 0 -- -- 59
2020-09-13 22:00:00 24.2 12 Sudeste 18 Sudeste 0 -- -- 70
2020-09-13 21:00:00 25.2 14 Sudeste 21 Sudeste 0 -- -- 63
2020-09-13 20:00:00 24.9 14 Sudeste 25 Este 0 -- -- 66
2020-09-13 19:00:00 26.6 17 Sudeste 30 Sudeste 0 -- -- 58
2020-09-13 18:00:00 26.8 18 Sudeste 34 Sudeste 0 -- -- 58
2020-09-13 17:00:00 26.7 20 Sudeste 34 Este 0 -- -- 53
2020-09-13 16:00:00 25.6 21 Sudeste 31 Sudeste 0 -- -- 54
2020-09-13 15:00:00 24.5 20 Sudeste 31 Sudeste 0 -- -- 65
2020-09-13 14:00:00 24.1 16 Este 25 Este 0 -- -- 76
2020-09-13 13:00:00 23.3 15 Este 23 Sudeste 0 -- -- 78
2020-09-13 12:00:00 23.2 14 Este 22 Sudeste 0 -- -- 73
2020-09-13 11:00:00 22.2 14 Este 24 Este 0 -- -- 72
2020-09-13 10:00:00 21.6 13 Sudeste 21 Sudeste 0 -- -- 71
2020-09-13 09:00:00 20.6 15 Sudeste 22 Sudeste 0 -- -- 76
2020-09-13 08:00:00 19.4 12 Sudeste 18 Sudeste 0 -- -- 76
2020-09-13 07:00:00 19.1 8 Sudeste 16 Sudeste 0 -- -- 78
2020-09-13 06:00:00 19.2 8 Sudeste 15 Sudeste 0 -- -- 79
2020-09-13 05:00:00 19.8 10 Sudeste 19 Este 0 -- -- 78
2020-09-13 04:00:00 20.1 12 Sudeste 24 Sudeste 0 -- -- 78
2020-09-13 03:00:00 20.3 15 Sudeste 26 Este 0 -- -- 79
2020-09-13 02:00:00 20.1 14 Sudeste 23 Este 0 -- -- 82
2020-09-13 01:00:00 19.9 13 Este 22 Este 0 -- -- 88
2020-09-13 00:00:00 19.8 14 Este 21 Este 0 -- -- 81
2020-09-12 23:00:00 20 14 Este 24 Este 0 -- -- 76
2020-09-12 22:00:00 20.1 16 Este 24 Este 0 -- -- 76
2020-09-12 21:00:00 20 14 Sudeste 26 Este 0 -- -- 74
2020-09-12 20:00:00 20.5 19 Este 26 Este 0 -- -- 85
2020-09-12 19:00:00 21.2 18 Este 24 Este 0 -- -- 81
2020-09-12 18:00:00 22 17 Este 23 Este 0 -- -- 77
2020-09-12 17:00:00 22.5 16 Este 23 Este 0 -- -- 78
2020-09-12 16:00:00 22.6 15 Este 22 Este 0 -- -- 75
2020-09-12 15:00:00 22.4 18 Este 22 Este 0 -- -- 70
2020-09-12 14:00:00 22.6 17 Este 21 Este 0 -- -- 73
2020-09-12 13:00:00 22.6 15 Este 20 Este 0 -- -- 79
2020-09-12 12:00:00 22.5 13 Este 17 Este 0 -- -- 79
2020-09-12 11:00:00 22.2 10 Este 14 Este 0 -- -- 81
2020-09-12 10:00:00 21.6 8 Este 11 Este 0 -- -- 83
2020-09-12 09:00:00 20.2 6 Este 9 Este 0 -- -- 93
2020-09-12 08:00:00 18.4 7 Este 12 Sudeste 0 -- -- 96
2020-09-12 07:00:00 18.4 7 Este 10 Este 0 -- -- 96
2020-09-12 06:00:00 18.6 4 Este 7 Este 0 -- -- 96
2020-09-12 05:00:00 18.2 5 Este 7 Este 0 -- -- 94
2020-09-12 04:00:00 18.2 2 Sudeste 8 Sudoeste 0 -- -- 86
2020-09-12 03:00:00 19.1 5 Sur 15 Este 0 -- -- 86
2020-09-12 02:00:00 19.7 11 Sudeste 22 Este 0 -- -- 89
2020-09-12 01:00:00 19.7 13 Sudeste 21 Sudeste 0 -- -- 91
2020-09-12 00:00:00 19.8 12 Sudeste 22 Sudeste 0 -- -- 90
2020-09-11 23:00:00 20 13 Sudeste 21 Este 0 -- -- 91
2020-09-11 22:00:00 20.4 21 Este 30 Este 0 -- -- 91
2020-09-11 21:00:00 20.2 19 Este 26 Este 0 -- -- 91
2020-09-11 20:00:00 20.5 17 Este 23 Este 0 -- -- 88
2020-09-11 19:00:00 21.6 11 Este 20 Este 0 -- -- 84
2020-09-11 18:00:00 21.9 17 Este 22 Este 0 -- -- 81
2020-09-11 17:00:00 22 17 Este 23 Este 0 -- -- 82
2020-09-11 16:00:00 22 18 Este 23 Nordeste 0 -- -- 81
2020-09-11 15:00:00 22.1 18 Este 23 Este 0 -- -- 83
2020-09-11 14:00:00 21.9 14 Este 18 Nordeste 0 -- -- 85
2020-09-11 13:00:00 22.5 14 Este 18 Este 0 -- -- 83
2020-09-11 12:00:00 22.2 12 Este 15 Este 0 -- -- 80
2020-09-11 11:00:00 22.1 8 Este 11 Nordeste 0 -- -- 80
2020-09-11 10:00:00 22 4 Este 9 Este 0 -- -- 82
2020-09-11 09:00:00 19.8 3 Sudoeste 5 Sudoeste 0 -- -- 93
2020-09-11 08:00:00 18.2 0 Calma 5 Sudeste 0 -- -- 96
2020-09-11 07:00:00 18.3 3 Sudoeste 6 Sudoeste 0 -- -- 95
2020-09-11 06:00:00 18.6 3 Oeste 7 Oeste 0 -- -- 96
2020-09-11 05:00:00 18.7 6 Oeste 12 Oeste 0 -- -- 95
2020-09-11 04:00:00 19 8 Oeste 15 Sudoeste 0 -- -- 95
2020-09-11 03:00:00 19 10 Oeste 13 Oeste 0 -- -- 94
2020-09-11 02:00:00 19.1 11 Sudoeste 15 Oeste 0 -- -- 94
2020-09-11 01:00:00 19.1 9 Oeste 14 Oeste 0 -- -- 94
2020-09-11 00:00:00 19.3 10 Sudoeste 16 Oeste 0 -- -- 94
2020-09-10 23:00:00 19.3 11 Sudoeste 21 Sudoeste 0 -- -- 92
2020-09-10 22:00:00 19.4 16 Oeste 22 Oeste 0 -- -- 93
2020-09-10 21:00:00 19.5 16 Sudoeste 24 Sudoeste 0 -- -- 92
2020-09-10 20:00:00 20.3 18 Oeste 30 Oeste 0 -- -- 89
2020-09-10 19:00:00 20.7 24 Oeste 31 Oeste 0 -- -- 88
2020-09-10 18:00:00 21.7 25 Oeste 31 Oeste 0 -- -- 84
2020-09-10 17:00:00 21.3 23 Oeste 29 Oeste 0 -- -- 86
2020-09-10 16:00:00 21.6 26 Oeste 30 Oeste 0 -- -- 84
2020-09-10 15:00:00 21.4 24 Oeste 32 Oeste 0 -- -- 86
2020-09-10 14:00:00 21.1 24 Oeste 33 Oeste 0 -- -- 85
2020-09-10 13:00:00 20.5 24 Oeste 35 Oeste 0 -- -- 84
2020-09-10 12:00:00 20.1 24 Oeste 36 Oeste 0 -- -- 85
2020-09-10 11:00:00 20 26 Oeste 36 Oeste 0 -- -- 86
2020-09-10 10:00:00 20 18 Oeste 30 Sudoeste 0 -- -- 85
2020-09-10 09:00:00 19.5 16 Oeste 27 Sudoeste 0 -- -- 85
2020-09-10 08:00:00 18.4 15 Oeste 27 Oeste 0 -- -- 89
2020-09-10 07:00:00 18.6 21 Oeste 30 Sudoeste 0 -- -- 89
2020-09-10 06:00:00 18.5 16 Oeste 28 Sudoeste 0 -- -- 93
2020-09-10 05:00:00 18.8 20 Oeste 28 Oeste 0 -- -- 94
2020-09-10 04:00:00 19 18 Oeste 26 Oeste 0 -- -- 93
2020-09-10 03:00:00 19.1 15 Oeste 28 Sudoeste 0 -- -- 93
2020-09-10 02:00:00 19.4 16 Oeste 26 Oeste 0 -- -- 93
2020-09-10 01:00:00 19.5 14 Oeste 23 Sudoeste 0 -- -- 92
2020-09-10 00:00:00 19.9 18 Oeste 27 Oeste 0 -- -- 92
2020-09-09 23:00:00 19.8 17 Sudoeste 27 Oeste 0 -- -- 91
2020-09-09 22:00:00 20 21 Oeste 26 Oeste 0 -- -- 89
2020-09-09 21:00:00 19.7 10 Oeste 26 Oeste 0 -- -- 80
2020-09-09 20:00:00 21.1 16 Oeste 26 Oeste 0 -- -- 80
2020-09-09 19:00:00 22.1 20 Oeste 22 Oeste 0 -- -- 78
2020-09-09 18:00:00 22.4 9 Oeste 18 Oeste 0 -- -- 82
2020-09-09 17:00:00 22.9 13 Oeste 19 Oeste 0 -- -- 78
2020-09-09 16:00:00 22.3 13 Oeste 19 Oeste 0 -- -- 81
2020-09-09 15:00:00 22 14 Oeste 19 Oeste 0 -- -- 80
2020-09-09 14:00:00 22.3 7 Noroeste 15 Este 0 -- -- 75
2020-09-09 13:00:00 22.2 12 Este 18 Este 0 -- -- 76
2020-09-09 12:00:00 22.2 9 Este 15 Este 0 -- -- 73
2020-09-09 11:00:00 21.8 9 Este 14 Este 0 -- -- 76
2020-09-09 10:00:00 21.3 6 Este 10 Este 0 -- -- 74
2020-09-09 09:00:00 20.2 4 Este 9 Este 0 -- -- 79
2020-09-09 08:00:00 17 0 Calma 7 Sudoeste 0 -- -- 91
2020-09-09 07:00:00 17.2 0 Calma 6 Oeste 0 -- -- 90
2020-09-09 06:00:00 17.4 0 Calma 4 Sudoeste 0 -- -- 93
2020-09-09 05:00:00 18 3 Sudeste 10 Sudeste 0 -- -- 89
2020-09-09 04:00:00 18.6 6 Sudeste 10 Sudeste 0 -- -- 86
2020-09-09 03:00:00 18.7 6 Sudeste 12 Sudeste 0 -- -- 83
2020-09-09 02:00:00 18.9 7 Sudeste 15 Este 0 -- -- 82
2020-09-09 01:00:00 19 9 Sudeste 17 Sudeste 0 -- -- 79
2020-09-09 00:00:00 19.1 9 Sudeste 20 Sudeste 0 -- -- 77
2020-09-08 23:00:00 19.3 12 Sudeste 23 Sudeste 0 -- -- 74
2020-09-08 22:00:00 19.4 14 Sudeste 36 Este 0 -- -- 72
2020-09-08 21:00:00 20 30 Este 37 Este 0 -- -- 69
2020-09-08 20:00:00 20 24 Este 31 Este 0 -- -- 65
2020-09-08 19:00:00 20.3 21 Este 28 Este 0 -- -- 65
2020-09-08 18:00:00 20.7 18 Este 24 Este 0 -- -- 69
2020-09-08 17:00:00 20.9 19 Este 26 Este 0 -- -- 68
2020-09-08 16:00:00 20.9 16 Este 23 Nordeste 0 -- -- 70
2020-09-08 15:00:00 20.9 18 Este 24 Este 0 -- -- 70
2020-09-08 14:00:00 21.1 17 Este 23 Este 0 -- -- 69
2020-09-08 13:00:00 21.1 13 Este 19 Este 0 -- -- 71
2020-09-08 12:00:00 20.8 10 Este 19 Este 0 -- -- 71
2020-09-08 11:00:00 20.3 11 Este 15 Este 0 -- -- 69
2020-09-08 10:00:00 20.1 8 Este 15 Este 0 -- -- 68
2020-09-08 09:00:00 19.1 9 Este 16 Sudeste 0 -- -- 73
2020-09-08 08:00:00 16.9 8 Sudeste 19 Sudeste 0 -- -- 79
2020-09-08 07:00:00 17 10 Sudeste 21 Sudeste 0 -- -- 77
2020-09-08 06:00:00 17.1 9 Sudeste 22 Sudeste 0 -- -- 79
2020-09-08 05:00:00 17.9 10 Sudeste 34 Este 0 -- -- 82
2020-09-08 04:00:00 18.9 19 Nordeste 27 Nordeste 0 -- -- 79
2020-09-08 03:00:00 18.4 10 Este 20 Este 0 -- -- 77
2020-09-08 02:00:00 18.4 9 Este 21 Nordeste 0 -- -- 75
2020-09-08 01:00:00 18.5 16 Nordeste 23 Nordeste 0 -- -- 72
2020-09-08 00:00:00 18.4 15 Nordeste 22 Nordeste 0 -- -- 70
2020-09-07 23:00:00 18.3 17 Nordeste 24 Nordeste 0 -- -- 70
2020-09-07 22:00:00 18.3 13 Nordeste 22 Norte 0 -- -- 71
2020-09-07 21:00:00 18 5 Norte 17 Nordeste 0 -- -- 68
2020-09-07 20:00:00 18.7 5 Norte 18 Nordeste 0 -- -- 67
2020-09-07 19:00:00 19.5 5 Norte 21 Nordeste 0 -- -- 62
2020-09-07 18:00:00 19.5 12 Nordeste 24 Nordeste 0 -- -- 60
2020-09-07 17:00:00 19.6 15 Nordeste 22 Nordeste 0 -- -- 62
2020-09-07 16:00:00 19.7 15 Nordeste 24 Este 0 -- -- 62
2020-09-07 15:00:00 19.8 18 Este 26 Este 0 -- -- 60
2020-09-07 14:00:00 20.1 19 Este 27 Este 0 -- -- 57
2020-09-07 13:00:00 20.2 18 Este 26 Este 0 -- -- 57
2020-09-07 12:00:00 19.7 16 Este 26 Este 0 -- -- 68
2020-09-07 11:00:00 19.5 9 Sudeste 18 Sudeste 0 -- -- 69
2020-09-07 10:00:00 17.4 5 Sudeste 21 Este 0 -- -- 77
2020-09-07 09:00:00 16.9 12 Este 40 Nordeste 0 -- -- 77
2020-09-07 08:00:00 17.3 8 Noroeste 18 Norte 0 -- -- 74
2020-09-07 07:00:00 17.1 7 Norte 18 Norte 0 -- -- 75
2020-09-07 06:00:00 16.8 10 Noroeste 30 Nordeste 0.4 -- -- 74
2020-09-07 05:00:00 17.7 7 Norte 17 Norte 0 -- -- 71
2020-09-07 04:00:00 17.6 5 Norte 29 Nordeste 0 -- -- 67
2020-09-07 03:00:00 17.7 9 Norte 22 Nordeste 0 -- -- 73
2020-09-07 02:00:00 17.8 11 Nordeste 21 Nordeste 0 -- -- 70
2020-09-07 01:00:00 17.8 8 Norte 21 Nordeste 0 -- -- 71
2020-09-07 00:00:00 17.8 10 Norte 22 Norte 0 -- -- 71
2020-09-06 23:00:00 17.7 14 Nordeste 29 Nordeste 0 -- -- 72
2020-09-06 22:00:00 17.9 21 Nordeste 31 Nordeste 0 -- -- 73
2020-09-06 21:00:00 18.1 15 Nordeste 24 Nordeste 0 -- -- 71
2020-09-06 20:00:00 18.5 4 Norte 23 Nordeste 0 -- -- 68
2020-09-06 19:00:00 18.8 13 Norte 24 Nordeste 0 -- -- 67
2020-09-06 18:00:00 18.8 17 Nordeste 23 Nordeste 0 -- -- 68
2020-09-06 17:00:00 19.2 12 Nordeste 22 Nordeste 0 -- -- 67
2020-09-06 16:00:00 19.8 14 Noroeste 29 Oeste 0 -- -- 70
2020-09-06 15:00:00 19 23 Oeste 36 Oeste 0 -- -- 73
2020-09-06 14:00:00 19.3 24 Oeste 33 Oeste 0 -- -- 71
2020-09-06 13:00:00 20 21 Oeste 28 Oeste 0 -- -- 64
2020-09-06 12:00:00 19.1 23 Oeste 29 Oeste 0 -- -- 64
2020-09-06 11:00:00 18.9 19 Oeste 28 Noroeste 0 -- -- 68
2020-09-06 10:00:00 18.6 16 Noroeste 25 Noroeste 0 -- -- 68
2020-09-06 09:00:00 18.1 15 Noroeste 21 Noroeste 0 -- -- 71
2020-09-06 08:00:00 17.9 14 Noroeste 21 Noroeste 0 -- -- 71
2020-09-06 07:00:00 17.7 10 Noroeste 18 Noroeste 0 -- -- 69
2020-09-06 06:00:00 17.8 11 Noroeste 18 Noroeste 0 -- -- 72
2020-09-06 05:00:00 17.8 7 Norte 15 Noroeste 0 -- -- 73
2020-09-06 04:00:00 18 8 Norte 21 Norte 0 -- -- 75
2020-09-06 03:00:00 18.3 9 Norte 18 Nordeste 0 -- -- 74
2020-09-06 02:00:00 18.5 6 Norte 24 Nordeste 0 -- -- 76
2020-09-06 01:00:00 18.6 14 Nordeste 27 Nordeste 0 -- -- 78
2020-09-06 00:00:00 18.8 17 Nordeste 27 Nordeste 0 -- -- 81
2020-09-05 23:00:00 19 15 Nordeste 22 Nordeste 0 -- -- 80
2020-09-05 22:00:00 19 11 Nordeste 18 Nordeste 0 -- -- 78
2020-09-05 21:00:00 19 13 Nordeste 22 Nordeste 0 -- -- 78
2020-09-05 20:00:00 19.2 12 Nordeste 20 Nordeste 0 -- -- 76
2020-09-05 19:00:00 19.7 14 Nordeste 21 Nordeste 0 -- -- 80
2020-09-05 18:00:00 20.4 6 Norte 20 Norte 0 -- -- 78
2020-09-05 17:00:00 20.4 7 Norte 22 Norte 0 -- -- 80
2020-09-05 16:00:00 21.7 6 Norte 15 Noroeste 0 -- -- 77
2020-09-05 15:00:00 23 8 Noroeste 16 Noroeste 0 -- -- 73
2020-09-05 14:00:00 22.1 12 Noroeste 19 Noroeste 0 -- -- 75
2020-09-05 13:00:00 21.7 15 Noroeste 23 Noroeste 0 -- -- 75
2020-09-05 12:00:00 20.9 16 Noroeste 22 Noroeste 0 -- -- 80
2020-09-05 11:00:00 21 14 Noroeste 22 Noroeste 0 -- -- 81
2020-09-05 10:00:00 20.4 18 Oeste 26 Oeste 0 -- -- 83
2020-09-05 09:00:00 20.1 21 Noroeste 34 Oeste 0 -- -- 85
2020-09-05 08:00:00 20.1 27 Oeste 35 Oeste 0 -- -- 87
2020-09-05 07:00:00 20.3 27 Oeste 45 Oeste 0 -- -- 91
2020-09-05 06:00:00 20.5 39 Oeste 58 Oeste 0 -- -- 89
2020-09-05 05:00:00 20.3 43 Oeste 64 Oeste 0 -- -- 89
2020-09-05 04:00:00 20.4 48 Oeste 68 Oeste 0 -- -- 90
2020-09-05 03:00:00 20.5 48 Oeste 62 Oeste 0 -- -- 92
2020-09-05 02:00:00 20.7 45 Oeste 55 Oeste 0 -- -- 94
2020-09-05 01:00:00 21.1 33 Oeste 47 Oeste 0 -- -- 95
2020-09-05 00:00:00 21.3 27 Oeste 39 Oeste 0 -- -- 90
2020-09-04 23:00:00 21 23 Oeste 33 Oeste 0 -- -- 96
2020-09-04 22:00:00 21.1 20 Sudoeste 25 Sudoeste 0 -- -- 95
2020-09-04 21:00:00 21.4 17 Sudoeste 21 Oeste 0 -- -- 95
2020-09-04 20:00:00 23.2 13 Sudoeste 18 Sudoeste 0 -- -- 86
2020-09-04 19:00:00 24.5 13 Sudeste 23 Este 0 -- -- 62
2020-09-04 18:00:00 25.4 18 Sudeste 27 Sudeste 0 -- -- 61
2020-09-04 17:00:00 26.1 19 Sudeste 29 Sudeste 0 -- -- 53
2020-09-04 16:00:00 25.5 21 Sudeste 32 Sudeste 0 -- -- 54
2020-09-04 15:00:00 24.9 18 Sudeste 24 Sudeste 0 -- -- 68
2020-09-04 14:00:00 24.4 14 Sudeste 21 Este 0 -- -- 75
2020-09-04 13:00:00 24.3 14 Este 22 Este 0 -- -- 74
2020-09-04 12:00:00 24.1 10 Sudeste 19 Sudeste 0 -- -- 72
2020-09-04 11:00:00 23.6 12 Sudeste 18 Sudeste 0 -- -- 64
2020-09-04 10:00:00 24.8 7 Sudeste 10 Sudeste 0 -- -- 65
2020-09-04 09:00:00 22.6 3 Sur 13 Sudeste 0 -- -- 77
2020-09-04 08:00:00 18.8 8 Sudeste 10 Sudeste 0 -- -- 89
2020-09-04 07:00:00 18.2 2 Sudoeste 5 Sudoeste 0 -- -- 88
2020-09-04 06:00:00 18.2 4 Sudoeste 6 Sudoeste 0 -- -- 87
2020-09-04 05:00:00 18.6 0 Calma 6 Sur 0 -- -- 89
2020-09-04 04:00:00 19 5 Sudeste 10 Este 0 -- -- 92
2020-09-04 03:00:00 18.9 8 Este 10 Este 0 -- -- 93
2020-09-04 02:00:00 19.2 5 Este 11 Este 0 -- -- 88
2020-09-04 01:00:00 19.6 7 Sudeste 14 Este 0 -- -- 89
2020-09-04 00:00:00 20 8 Sudeste 18 Sudeste 0 -- -- 88
2020-09-03 23:00:00 20.2 14 Sudeste 22 Sudeste 0 -- -- 88
2020-09-03 22:00:00 20.2 15 Este 24 Este 0 -- -- 87
2020-09-03 21:00:00 20.3 16 Este 26 Sudeste 0 -- -- 85
2020-09-03 20:00:00 21 17 Este 28 Este 0 -- -- 80
2020-09-03 19:00:00 21.8 17 Sudeste 27 Este 0 -- -- 74
2020-09-03 18:00:00 22.1 17 Sudeste 27 Sudeste 0 -- -- 68
2020-09-03 17:00:00 21.7 20 Este 30 Este 0 -- -- 70
2020-09-03 16:00:00 21.9 21 Este 33 Este 0 -- -- 70
2020-09-03 15:00:00 21.8 23 Este 33 Este 0 -- -- 65
2020-09-03 14:00:00 21.6 23 Este 30 Este 0 -- -- 65
2020-09-03 13:00:00 21.2 24 Este 32 Este 0 -- -- 63
2020-09-03 12:00:00 21.2 26 Este 31 Este 0 -- -- 62
2020-09-03 11:00:00 20.5 20 Este 27 Este 0 -- -- 64
2020-09-03 10:00:00 20.6 11 Este 19 Este 0 -- -- 63
2020-09-03 09:00:00 19.6 10 Este 23 Este 0 -- -- 60
2020-09-03 08:00:00 17.5 11 Sudeste 19 Este 0 -- -- 64
2020-09-03 07:00:00 17.1 9 Este 17 Sudeste 0 -- -- 67
2020-09-03 06:00:00 17.4 12 Este 19 Este 0 -- -- 67
2020-09-03 05:00:00 17.8 13 Este 22 Sudeste 0 -- -- 65
2020-09-03 04:00:00 18.2 10 Sudeste 18 Sudeste 0 -- -- 71
2020-09-03 03:00:00 18.4 10 Sudeste 16 Sudeste 0 -- -- 70
2020-09-03 02:00:00 18.5 9 Sudeste 19 Sudeste 0 -- -- 68
2020-09-03 01:00:00 18.7 12 Sudeste 20 Este 0 -- -- 66
2020-09-03 00:00:00 18.7 13 Este 19 Sudeste 0 -- -- 65
2020-09-02 23:00:00 18.7 10 Sudeste 22 Sudeste 0 -- -- 64
2020-09-02 22:00:00 18.8 12 Este 24 Este 0 -- -- 64
2020-09-02 21:00:00 19.2 17 Este 22 Este 0 -- -- 63
2020-09-02 20:00:00 19.9 13 Este 19 Este 0 -- -- 58
2020-09-02 19:00:00 21 12 Este 18 Este 0 -- -- 56
2020-09-02 18:00:00 21.6 14 Este 18 Este 0 -- -- 54
2020-09-02 17:00:00 21.8 14 Este 18 Este 0 -- -- 51
2020-09-02 16:00:00 22.2 12 Este 18 Este 0 -- -- 61
2020-09-02 15:00:00 22.2 11 Nordeste 14 Nordeste 0 -- -- 64
2020-09-02 14:00:00 21.8 6 Nordeste 10 Nordeste 0 -- -- 71
2020-09-02 13:00:00 20.8 8 Oeste 16 Oeste 0 -- -- 79
2020-09-02 12:00:00 20.3 14 Oeste 17 Oeste 0 -- -- 80
2020-09-02 11:00:00 20.7 10 Sudoeste 17 Oeste 0 -- -- 78
2020-09-02 10:00:00 19.9 12 Oeste 23 Oeste 0 -- -- 79
2020-09-02 09:00:00 19 14 Sudoeste 19 Sudoeste 0 -- -- 81
2020-09-02 08:00:00 17.7 14 Sudoeste 21 Sudoeste 0 -- -- 86
2020-09-02 07:00:00 17.7 14 Sudoeste 20 Oeste 0 -- -- 85
2020-09-02 06:00:00 17.7 14 Sudoeste 21 Sudoeste 0 -- -- 86
2020-09-02 05:00:00 17.7 13 Sudoeste 20 Oeste 0 -- -- 87
2020-09-02 04:00:00 17.1 10 Oeste 12 Oeste 0 -- -- 84
2020-09-02 03:00:00 17.7 0 Calma 6 Este 0 -- -- 80
2020-09-02 02:00:00 16.6 5 Este 8 Este 0 -- -- 81
2020-09-02 01:00:00 17.9 5 Este 12 Nordeste 0 -- -- 79
2020-09-02 00:00:00 19.5 12 Nordeste 17 Nordeste 0 -- -- 77
2020-09-01 23:00:00 19.4 7 Nordeste 12 Nordeste 0 -- -- 74
2020-09-01 22:00:00 19 2 Norte 9 Noroeste 0 -- -- 72
2020-09-01 21:00:00 19.4 5 Noroeste 10 Norte 0 -- -- 70
2020-09-01 20:00:00 21 5 Noroeste 12 Noroeste 0 -- -- 67
2020-09-01 19:00:00 21.7 7 Noroeste 16 Noroeste 0 -- -- 67
2020-09-01 18:00:00 22.9 10 Noroeste 18 Noroeste 0 -- -- 63
2020-09-01 17:00:00 21.2 16 Noroeste 26 Oeste 0 -- -- 74
2020-09-01 16:00:00 21.4 16 Oeste 22 Oeste 0 -- -- 76
2020-09-01 15:00:00 20.9 13 Oeste 17 Oeste 0 -- -- 78
2020-09-01 14:00:00 20.5 10 Oeste 14 Oeste 0 -- -- 79
2020-09-01 13:00:00 20.1 12 Oeste 15 Oeste 0 -- -- 74
2020-09-01 12:00:00 21.1 6 Oeste 11 Sudoeste 0 -- -- 72
2020-09-01 11:00:00 20.9 5 Sudoeste 6 Sudoeste 0 -- -- 67
2020-09-01 10:00:00 19.4 4 Sudoeste 9 Este 0 -- -- 74
2020-09-01 09:00:00 19.3 5 Este 8 Este 0 -- -- 72
2020-09-01 08:00:00 16 3 Este 5 Oeste 0 -- -- 80
2020-09-01 07:00:00 16.8 4 Oeste 5 Oeste 0 -- -- 78
2020-09-01 06:00:00 16.8 0 Calma 3 Noroeste 0 -- -- 76
2020-09-01 05:00:00 17.5 0 Calma 12 Sudeste 0 -- -- 73
2020-09-01 04:00:00 17.9 8 Sudeste 16 Sudeste 0 -- -- 77
2020-09-01 03:00:00 18 10 Sudeste 17 Sudeste 0 -- -- 78
2020-09-01 02:00:00 18.1 9 Sudeste 17 Sudeste 0 -- -- 77
2020-09-01 01:00:00 18.2 11 Sudeste 20 Sudeste 0 -- -- 77
2020-09-01 00:00:00 18.3 13 Sudeste 21 Sudeste 0 -- -- 74
2020-08-31 23:00:00 18.3 12 Sudeste 23 Sudeste 0 -- -- 73
2020-08-31 22:00:00 18.2 13 Sudeste 23 Este 0 -- -- 72
2020-08-31 21:00:00 18.2 13 Sudeste 28 Este 0 -- -- 72
2020-08-31 20:00:00 18.6 19 Este 31 Este 0 -- -- 70
2020-08-31 19:00:00 19.5 23 Este 32 Este 0 -- -- 67
2020-08-31 18:00:00 19.4 24 Este 33 Este 0 -- -- 67
2020-08-31 17:00:00 19.8 27 Este 36 Este 0 -- -- 63
2020-08-31 16:00:00 19.8 23 Este 31 Este 0 -- -- 66
2020-08-31 15:00:00 20 22 Este 30 Nordeste 0 -- -- 66
2020-08-31 14:00:00 19.9 21 Este 29 Este 0 -- -- 64
2020-08-31 13:00:00 20 20 Este 27 Este 0 -- -- 61
2020-08-31 12:00:00 20 15 Este 22 Este 0 -- -- 60
2020-08-31 11:00:00 19.6 11 Este 19 Este 0 -- -- 67
2020-08-31 10:00:00 19.5 5 Este 9 Este 0 -- -- 64
2020-08-31 09:00:00 18.2 3 Sudeste 7 Sudeste 0 -- -- 73
2020-08-31 08:00:00 14.1 5 Sudeste 6 Sudeste 0 -- -- 78
2020-08-31 07:00:00 14.9 0 Calma 4 Sudoeste 0 -- -- 80
2020-08-31 06:00:00 14.4 3 Oeste 7 Oeste 0 -- -- 76
2020-08-31 05:00:00 13.9 5 Sudoeste 10 Sudoeste 0 -- -- 78
2020-08-31 04:00:00 14.4 6 Sudoeste 11 Oeste 0 -- -- 76
2020-08-31 03:00:00 14.8 8 Oeste 12 Oeste 0 -- -- 73
2020-08-31 02:00:00 15.7 5 Oeste 10 Oeste 0 -- -- 71
2020-08-31 01:00:00 15.8 6 Oeste 14 Noroeste 0 -- -- 72
2020-08-31 00:00:00 16.7 6 Noroeste 17 Noroeste 0 -- -- 63
2020-08-30 23:00:00 16.9 8 Noroeste 16 Noroeste 0 -- -- 67
2020-08-30 22:00:00 17.2 9 Noroeste 22 Noroeste 0 -- -- 66
2020-08-30 21:00:00 17.6 13 Noroeste 24 Noroeste 0 -- -- 65
2020-08-30 20:00:00 18.2 17 Noroeste 28 Noroeste 0 -- -- 63
2020-08-30 19:00:00 18.1 19 Noroeste 37 Noroeste 0 -- -- 61
2020-08-30 18:00:00 18 27 Noroeste 51 Oeste 0 -- -- 69
2020-08-30 17:00:00 17.7 33 Oeste 43 Oeste 0 -- -- 71
2020-08-30 16:00:00 18.4 30 Oeste 39 Oeste 0 -- -- 70
2020-08-30 15:00:00 17.5 28 Oeste 49 Oeste 0 -- -- 72
2020-08-30 14:00:00 17.5 17 Oeste 34 Oeste 0 -- -- 72
2020-08-30 13:00:00 18.7 15 Noroeste 22 Noroeste 0 -- -- 59
2020-08-30 12:00:00 17.3 14 Noroeste 31 Noroeste 0 -- -- 62
2020-08-30 11:00:00 16.7 22 Noroeste 44 Noroeste 0 -- -- 70
2020-08-30 10:00:00 15.2 18 Sudoeste 62 Oeste 0 -- -- 78
2020-08-30 09:00:00 16.5 13 Norte 36 Noroeste 0.2 -- -- 78
2020-08-30 08:00:00 16.4 27 Noroeste 63 Noroeste 0 -- -- 78
2020-08-30 07:00:00 16.7 42 Noroeste 58 Oeste 0 -- -- 73
2020-08-30 06:00:00 17.6 43 Oeste 58 Oeste 0 -- -- 63
2020-08-30 05:00:00 17.4 43 Noroeste 58 Noroeste 0 -- -- 63
2020-08-30 04:00:00 17.1 37 Noroeste 52 Noroeste 0 -- -- 71
2020-08-30 03:00:00 17.4 40 Oeste 56 Noroeste 0 -- -- 61
2020-08-30 02:00:00 17.4 45 Noroeste 60 Oeste 0 -- -- 65
2020-08-30 01:00:00 17.4 42 Oeste 60 Noroeste 0 -- -- 64
2020-08-30 00:00:00 17.5 48 Noroeste 61 Noroeste 0 -- -- 61
2020-08-29 23:00:00 17.4 43 Noroeste 64 Noroeste 0 -- -- 72
2020-08-29 22:00:00 17.3 51 Noroeste 75 Noroeste 0 -- -- 65
2020-08-29 21:00:00 16.9 51 Noroeste 66 Noroeste 3.4 -- -- 81
2020-08-29 20:00:00 15.7 28 Noroeste 63 Oeste 2.2 -- -- 95
2020-08-29 19:00:00 17.5 36 Noroeste 50 Noroeste 0 -- -- 79
2020-08-29 18:00:00 17.5 30 Noroeste 66 Noroeste 0.6 -- -- 84
2020-08-29 17:00:00 18.5 36 Noroeste 52 Noroeste 0.8 -- -- 76
2020-08-29 16:00:00 17.7 34 Oeste 45 Oeste 0.6 -- -- 81
2020-08-29 15:00:00 14.7 23 Oeste 65 Oeste 2.8 -- -- 92
2020-08-29 14:00:00 16.9 28 Oeste 63 Oeste 0.8 -- -- 89
2020-08-29 13:00:00 16 24 Oeste 65 Oeste 1.2 -- -- 90
2020-08-29 12:00:00 15.9 25 Oeste 49 Oeste 0.6 -- -- 89
2020-08-29 11:00:00 15.5 26 Oeste 62 Oeste 1.6 -- -- 90
2020-08-29 10:00:00 15.6 27 Oeste 54 Oeste 2.6 -- -- 90
2020-08-29 09:00:00 14.8 21 Oeste 48 Oeste 7.4 -- -- 91
2020-08-29 08:00:00 14.9 23 Oeste 61 Oeste 1 -- -- 92
2020-08-29 07:00:00 15.2 33 Oeste 60 Oeste 0.6 -- -- 92
2020-08-29 06:00:00 16 36 Oeste 68 Oeste 0 -- -- 88
2020-08-29 05:00:00 15.9 29 Oeste 72 Oeste 1.2 -- -- 93
2020-08-29 04:00:00 16.1 42 Oeste 67 Oeste 0.4 -- -- 91
2020-08-29 03:00:00 16.4 36 Oeste 68 Oeste 0.6 -- -- 88
2020-08-29 02:00:00 17.6 51 Oeste 72 Oeste 0 -- -- 77
2020-08-29 01:00:00 18.7 50 Oeste 64 Oeste 0 -- -- 72
2020-08-29 00:00:00 19 51 Oeste 66 Oeste 0.2 -- -- 66
2020-08-28 23:00:00 18.9 45 Oeste 62 Oeste 0 -- -- 66
2020-08-28 22:00:00 18.8 56 Oeste 72 Oeste 0 -- -- 70
2020-08-28 21:00:00 18.7 45 Oeste 57 Oeste 0 -- -- 72
2020-08-28 20:00:00 19.1 46 Oeste 61 Oeste 0 -- -- 69
2020-08-28 19:00:00 18.9 45 Oeste 72 Oeste 0.2 -- -- 72
2020-08-28 18:00:00 18.6 46 Oeste 80 Oeste 0 -- -- 76
2020-08-28 17:00:00 19 49 Oeste 61 Oeste 0 -- -- 74
2020-08-28 16:00:00 16 58 Oeste 80 Oeste 1 -- -- 96
2020-08-28 15:00:00 17.2 22 Oeste 50 Oeste 1 -- -- 91
2020-08-28 14:00:00 18 27 Oeste 56 Oeste 0 -- -- 86
2020-08-28 13:00:00 18.3 33 Oeste 53 Oeste 0 -- -- 86
2020-08-28 12:00:00 17.9 27 Oeste 45 Oeste 0 -- -- 86
2020-08-28 11:00:00 16.5 34 Oeste 69 Oeste 0.4 -- -- 90
2020-08-28 10:00:00 17.2 35 Oeste 64 Oeste 0 -- -- 93
2020-08-28 09:00:00 18.5 46 Oeste 63 Oeste 0 -- -- 83
2020-08-28 08:00:00 18.2 39 Oeste 67 Oeste 0 -- -- 88
2020-08-28 07:00:00 19.2 54 Oeste 77 Oeste 0.2 -- -- 74
2020-08-28 06:00:00 17.9 50 Oeste 63 Oeste 1.2 -- -- 98
2020-08-28 05:00:00 18.9 45 Oeste 55 Oeste 3.4 -- -- 99
2020-08-28 04:00:00 20.6 14 Oeste 24 Oeste 0 -- -- 91
2020-08-28 03:00:00 21 15 Oeste 28 Sudoeste 0 -- -- 89
2020-08-28 02:00:00 21 14 Oeste 23 Oeste 0 -- -- 89
2020-08-28 01:00:00 20.7 9 Oeste 19 Oeste 0 -- -- 94
2020-08-28 00:00:00 21.4 11 Oeste 17 Oeste 0 -- -- 88
2020-08-27 23:00:00 21.2 8 Sudoeste 18 Sudoeste 0 -- -- 88
2020-08-27 22:00:00 21.4 10 Oeste 29 Oeste 0 -- -- 88
2020-08-27 21:00:00 21.6 22 Oeste 27 Oeste 0 -- -- 91
2020-08-27 20:00:00 21.7 20 Oeste 26 Oeste 0 -- -- 89
2020-08-27 19:00:00 21.9 20 Oeste 26 Oeste 0 -- -- 89
2020-08-27 18:00:00 22.3 23 Oeste 35 Oeste 0 -- -- 86
2020-08-27 17:00:00 22.7 30 Oeste 44 Oeste 0 -- -- 86
2020-08-27 16:00:00 22.6 36 Oeste 42 Oeste 0 -- -- 89
2020-08-27 15:00:00 22.8 36 Oeste 42 Oeste 0 -- -- 89
2020-08-27 14:00:00 23.2 30 Oeste 35 Oeste 0 -- -- 83
2020-08-27 13:00:00 23.7 17 Oeste 20 Oeste 0 -- -- 81
2020-08-27 12:00:00 24.7 7 Oeste 11 Oeste 0 -- -- 74
2020-08-27 11:00:00 24.5 5 Nordeste 15 Este 0 -- -- 76
2020-08-27 10:00:00 22.8 7 Este 14 Sudeste 0 -- -- 83
2020-08-27 09:00:00 22.1 11 Sudeste 22 Sudeste 0 -- -- 87
2020-08-27 08:00:00 20.8 10 Sudeste 15 Sudeste 0 -- -- 94
2020-08-27 07:00:00 20.4 8 Sudeste 14 Sudeste 0 -- -- 94
2020-08-27 06:00:00 20.4 8 Sudeste 14 Sudeste 0 -- -- 94
2020-08-27 05:00:00 20.4 6 Sudeste 14 Este 0 -- -- 93
2020-08-27 04:00:00 20.4 9 Sudeste 16 Sudeste 0 -- -- 94
2020-08-27 03:00:00 20.4 6 Sudeste 10 Sudeste 0 -- -- 94
2020-08-27 02:00:00 20.8 5 Sudeste 19 Este 0 -- -- 93
2020-08-27 01:00:00 21.2 15 Este 25 Este 0 -- -- 92
2020-08-27 00:00:00 21.2 15 Este 21 Este 0 -- -- 92
2020-08-26 23:00:00 21.4 15 Este 23 Este 0 -- -- 91
2020-08-26 22:00:00 21.5 18 Este 23 Este 0 -- -- 92
2020-08-26 21:00:00 21.6 19 Este 26 Este 0 -- -- 92
2020-08-26 20:00:00 22 21 Este 28 Este 0 -- -- 90
2020-08-26 19:00:00 22.6 21 Este 26 Este 0 -- -- 88
2020-08-26 18:00:00 23.1 20 Este 27 Este 0 -- -- 87
2020-08-26 17:00:00 22.9 22 Este 27 Este 0 -- -- 88
2020-08-26 16:00:00 23.1 21 Este 25 Este 0 -- -- 87
2020-08-26 15:00:00 23.3 21 Este 25 Este 0 -- -- 85
2020-08-26 14:00:00 23.3 17 Nordeste 23 Este 0 -- -- 86
2020-08-26 13:00:00 23.3 19 Este 23 Este 0 -- -- 87
2020-08-26 12:00:00 23.1 18 Este 22 Este 0 -- -- 88
2020-08-26 11:00:00 22.2 9 Este 13 Este 0 -- -- 89
2020-08-26 10:00:00 22.1 8 Este 12 Este 0 -- -- 86
2020-08-26 09:00:00 21.2 4 Este 8 Este 0 -- -- 90
2020-08-26 08:00:00 20.8 3 Este 6 Este 0 -- -- 90
2020-08-26 07:00:00 20.5 3 Este 5 Sudeste 0 -- -- 88
2020-08-26 06:00:00 20.4 0 Calma 3 Norte 0 -- -- 88
2020-08-26 05:00:00 20 0 Calma 2 Noroeste 0 -- -- 88
2020-08-26 04:00:00 19.9 0 Calma 8 Sur 0 -- -- 89
2020-08-26 03:00:00 20.6 0 Calma 5 Sudoeste 0 -- -- 86
2020-08-26 02:00:00 21.2 2 Sudoeste 9 Oeste 0 -- -- 84
2020-08-26 01:00:00 21.6 4 Sur 13 Oeste 0 -- -- 83
2020-08-26 00:00:00 21.1 4 Oeste 10 Oeste 0 -- -- 87
2020-08-25 23:00:00 21 5 Sur 12 Oeste 0 -- -- 88
2020-08-25 22:00:00 21.6 8 Oeste 22 Oeste 0 -- -- 86
2020-08-25 21:00:00 21.7 16 Oeste 24 Oeste 0 -- -- 84
2020-08-25 20:00:00 22.2 19 Oeste 28 Oeste 0 -- -- 82
2020-08-25 19:00:00 22.8 21 Oeste 28 Oeste 0 -- -- 79
2020-08-25 18:00:00 23 21 Oeste 27 Oeste 0 -- -- 77
2020-08-25 17:00:00 23 23 Oeste 31 Oeste 0 -- -- 78
2020-08-25 16:00:00 22.8 28 Oeste 42 Oeste 0 -- -- 76
2020-08-25 15:00:00 22.8 35 Oeste 42 Oeste 0 -- -- 76
2020-08-25 14:00:00 22.6 31 Oeste 50 Oeste 0 -- -- 79
2020-08-25 13:00:00 22.6 34 Oeste 46 Oeste 0 -- -- 75
2020-08-25 12:00:00 23.1 36 Oeste 52 Oeste 0 -- -- 67
2020-08-25 11:00:00 23.2 39 Oeste 49 Oeste 0 -- -- 63
2020-08-25 10:00:00 23.8 30 Oeste 40 Oeste 0 -- -- 61
2020-08-25 09:00:00 22.9 8 Oeste 20 Oeste 0 -- -- 59
2020-08-25 08:00:00 20.7 0 Calma 10 Oeste 0 -- -- 73
2020-08-25 07:00:00 18.9 5 Sudeste 14 Oeste 0 -- -- 81
2020-08-25 06:00:00 19.7 12 Oeste 17 Oeste 0 -- -- 80
2020-08-25 05:00:00 19.7 6 Sudoeste 19 Sudeste 0 -- -- 73
2020-08-25 04:00:00 19.6 14 Sudeste 22 Sudeste 0 -- -- 79
2020-08-25 03:00:00 19.9 12 Sudeste 27 Sudeste 0 -- -- 83
2020-08-25 02:00:00 19.9 16 Sudeste 28 Sudeste 0 -- -- 81
2020-08-25 01:00:00 19.9 17 Sudeste 27 Sudeste 0 -- -- 81
2020-08-25 00:00:00 19.8 15 Sudeste 31 Sudeste 0 -- -- 83
2020-08-24 23:00:00 20 17 Sudeste 29 Sudeste 0 -- -- 81
2020-08-24 22:00:00 20 18 Sudeste 40 Este 0 -- -- 78
2020-08-24 21:00:00 20.5 28 Este 40 Este 0 -- -- 76
2020-08-24 20:00:00 21.3 27 Este 34 Este 0 -- -- 70
2020-08-24 19:00:00 21.2 23 Este 31 Este 0 -- -- 70
2020-08-24 18:00:00 21.6 24 Este 32 Este 0 -- -- 71
2020-08-24 17:00:00 22 21 Este 28 Este 0 -- -- 71
2020-08-24 16:00:00 22.3 17 Este 23 Este 0 -- -- 70
2020-08-24 15:00:00 22.4 15 Este 21 Este 0 -- -- 66
2020-08-24 14:00:00 22.4 12 Nordeste 16 Nordeste 0 -- -- 67
2020-08-24 13:00:00 22.3 10 Nordeste 13 Nordeste 0 -- -- 68
2020-08-24 12:00:00 22 4 Oeste 10 Oeste 0 -- -- 71
2020-08-24 11:00:00 21.3 6 Oeste 10 Oeste 0 -- -- 74
2020-08-24 10:00:00 20.4 6 Sudoeste 9 Oeste 0 -- -- 77
2020-08-24 09:00:00 19.6 7 Sudoeste 16 Oeste 0 -- -- 82
2020-08-24 08:00:00 18 10 Oeste 16 Oeste 0 -- -- 87
2020-08-24 07:00:00 17.7 10 Oeste 15 Oeste 0 -- -- 87
2020-08-24 06:00:00 18.1 10 Oeste 13 Oeste 0 -- -- 86
2020-08-24 05:00:00 17.7 3 Sudoeste 6 Oeste 0 -- -- 85
2020-08-24 04:00:00 17.5 5 Oeste 6 Oeste 0 -- -- 88
2020-08-24 03:00:00 17.5 3 Sudoeste 4 Sudoeste 0 -- -- 87
2020-08-24 02:00:00 17.7 0 Calma 4 Este 0 -- -- 86
2020-08-24 01:00:00 18.2 0 Calma 8 Nordeste 0 -- -- 83
2020-08-24 00:00:00 18.5 3 Este 10 Nordeste 0 -- -- 81
2020-08-23 23:00:00 19.6 4 Nordeste 11 Norte 0 -- -- 78
2020-08-23 22:00:00 18.8 6 Nordeste 13 Este 0 -- -- 78
2020-08-23 21:00:00 19.3 8 Este 13 Este 0 -- -- 79
2020-08-23 20:00:00 20.4 8 Nordeste 12 Nordeste 0 -- -- 73
2020-08-23 19:00:00 21.3 8 Nordeste 15 Nordeste 0 -- -- 69
2020-08-23 18:00:00 21.5 10 Nordeste 16 Nordeste 0 -- -- 73
2020-08-23 17:00:00 22.2 6 Norte 12 Norte 0 -- -- 69
2020-08-23 16:00:00 23 5 Norte 12 Noroeste 0 -- -- 64
2020-08-23 15:00:00 22.4 5 Norte 20 Oeste 0 -- -- 70
2020-08-23 14:00:00 22.1 16 Oeste 23 Oeste 0 -- -- 76
2020-08-23 13:00:00 20.8 19 Oeste 26 Oeste 0 -- -- 78
2020-08-23 12:00:00 20.4 18 Oeste 23 Noroeste 0 -- -- 72
2020-08-23 11:00:00 20.1 13 Oeste 21 Oeste 0 -- -- 75
2020-08-23 10:00:00 20.1 10 Oeste 19 Oeste 0 -- -- 77
2020-08-23 09:00:00 19.9 7 Sudoeste 13 Sudoeste 0 -- -- 78
2020-08-23 08:00:00 18.1 6 Sudoeste 20 Oeste 0 -- -- 84
2020-08-23 07:00:00 18.1 15 Oeste 22 Oeste 0 -- -- 87
2020-08-23 06:00:00 18.3 14 Oeste 22 Sudoeste 0 -- -- 88
2020-08-23 05:00:00 18.3 13 Oeste 18 Sudoeste 0 -- -- 88
2020-08-23 04:00:00 18.5 12 Oeste 17 Oeste 0 -- -- 86
2020-08-23 03:00:00 18.5 13 Oeste 18 Oeste 0 -- -- 86
2020-08-23 02:00:00 18.7 13 Oeste 21 Oeste 0 -- -- 86
2020-08-23 01:00:00 19 12 Oeste 19 Oeste 0 -- -- 86
2020-08-23 00:00:00 19.8 9 Oeste 18 Oeste 0 -- -- 84
2020-08-22 23:00:00 20.1 14 Noroeste 19 Noroeste 0 -- -- 82
2020-08-22 22:00:00 19.8 8 Noroeste 20 Noroeste 0 -- -- 84
2020-08-22 21:00:00 20.3 8 Noroeste 18 Oeste 0 -- -- 80
2020-08-22 20:00:00 20.5 14 Oeste 20 Noroeste 0 -- -- 80
2020-08-22 19:00:00 20.8 10 Noroeste 17 Noroeste 0 -- -- 79
2020-08-22 18:00:00 21.4 12 Noroeste 20 Noroeste 0 -- -- 78
2020-08-22 17:00:00 21.4 13 Noroeste 18 Noroeste 0 -- -- 74
2020-08-22 16:00:00 21.5 10 Noroeste 23 Oeste 0 -- -- 76
2020-08-22 15:00:00 20.6 15 Noroeste 26 Noroeste 0 -- -- 83
2020-08-22 14:00:00 19.5 22 Noroeste 31 Noroeste 0 -- -- 89
2020-08-22 13:00:00 20.8 12 Noroeste 19 Noroeste 0 -- -- 88
2020-08-22 12:00:00 20.8 13 Oeste 17 Oeste 0 -- -- 87
2020-08-22 11:00:00 19.8 12 Oeste 20 Oeste 0.2 -- -- 91
2020-08-22 10:00:00 19.4 8 Oeste 13 Sudoeste 0.4 -- -- 89
2020-08-22 09:00:00 19.2 3 Sudeste 10 Sur 0.2 -- -- 89
2020-08-22 08:00:00 18.6 8 Sudeste 12 Sudeste 0 -- -- 90
2020-08-22 07:00:00 18.7 2 Sudoeste 4 Sudoeste 0 -- -- 88
2020-08-22 06:00:00 18.4 2 Oeste 5 Sudeste 0 -- -- 89
2020-08-22 05:00:00 18.5 0 Calma 6 Sudeste 0 -- -- 87
2020-08-22 04:00:00 18.3 4 Sudeste 7 Sudeste 0 -- -- 87
2020-08-22 03:00:00 18.8 5 Sudeste 8 Sudeste 0 -- -- 86
2020-08-22 02:00:00 18.8 5 Sudeste 10 Este 0 -- -- 83
2020-08-22 01:00:00 19.3 4 Nordeste 10 Nordeste 0 -- -- 80
2020-08-22 00:00:00 20.4 6 Este 15 Nordeste 0 -- -- 77
2020-08-21 23:00:00 20.8 11 Nordeste 17 Nordeste 0 -- -- 76
2020-08-21 22:00:00 20.9 10 Nordeste 15 Nordeste 0 -- -- 76
2020-08-21 21:00:00 21 10 Nordeste 18 Nordeste 0 -- -- 77
2020-08-21 20:00:00 21.1 12 Nordeste 24 Nordeste 0 -- -- 78
2020-08-21 19:00:00 21.3 19 Nordeste 25 Nordeste 0 -- -- 76
2020-08-21 18:00:00 21.9 17 Nordeste 24 Nordeste 0 -- -- 75
2020-08-21 17:00:00 21.8 20 Nordeste 25 Este 0 -- -- 76
2020-08-21 16:00:00 22.2 16 Nordeste 25 Nordeste 0 -- -- 74
2020-08-21 15:00:00 23 18 Nordeste 23 Nordeste 0 -- -- 72
2020-08-21 14:00:00 22 15 Nordeste 21 Nordeste 0 -- -- 76
2020-08-21 13:00:00 21.9 15 Nordeste 21 Norte 0 -- -- 73
2020-08-21 12:00:00 -- -- -- -- -- -- -- -- --
2020-08-21 11:00:00 21.7 11 Nordeste 18 Nordeste 0 -- -- 85
2020-08-21 10:00:00 22 4 Norte 9 Norte 0 -- -- 91
2020-08-21 09:00:00 21.6 4 Noroeste 17 Oeste 0 -- -- 93
2020-08-21 08:00:00 21.3 15 Oeste 32 Oeste 0 -- -- 94
2020-08-21 07:00:00 21.2 21 Oeste 33 Oeste 0 -- -- 94
2020-08-21 06:00:00 21.3 26 Oeste 38 Oeste 0 -- -- 95
2020-08-21 05:00:00 21.4 27 Oeste 43 Oeste 0 -- -- 93
2020-08-21 04:00:00 22.2 33 Oeste 44 Oeste 0 -- -- 92
2020-08-21 03:00:00 24.5 15 Sur 32 Sudoeste 0.2 -- -- 66
2020-08-21 02:00:00 22.5 5 Sudoeste 17 Sudoeste 0.2 -- -- 79
2020-08-21 01:00:00 22.6 5 Sur 15 Sur 0 -- -- 77
2020-08-21 00:00:00 22.5 10 Sudeste 19 Sudeste 0 -- -- 80